Terminal Aerodrome Forecast
Issued by NWS

Home | Current Version | Previous Version | Text Only | Print | Product List | Glossary On
Versions: 1 2 3 4 5 6 7 8 9 10 11 12
000
FTUS44 KLZK 012300 RRA
TAFLIT
TAF
KLIT 012348Z 0200/0224 21013G19KT P6SM FEW040 BKN250
     FM020300 22010KT P6SM SCT250
     FM021200 23010G18KT P6SM FEW030 BKN150
     FM021600 24015G25KT P6SM SCT050 SCT100 BKN250=

USA.gov is the U.S. government's official web portal to all federal, state and local government web resources and services.